Time;durP1;ratioP1;P1;durP2;ratioP2;P2;SDS_P1;SDS_P2;PMS_P1;PMS_P2;Temp;Humidity;BMP_temperature;BMP_pressure;BME280_temperature;BME280_humidity;BME280_pressure;Samples;Min_cycle;Max_cycle;Signal;HPM_P1;HPM_P2
2023/12/04 00:00:21;;;;;;;;;;;19.10;44.50;;;;;;7394337;19;4585;-61
2023/12/04 00:02:47;;;;;;;;;;;19.10;44.50;;;;;;7399036;19;1871;-61
2023/12/04 00:05:12;;;;;;;;;;;19.00;44.40;;;;;;7399410;19;1535;-62
2023/12/04 00:07:37;;;;;;;;;;;19.00;44.70;;;;;;7397881;19;3474;-62
2023/12/04 00:10:03;;;;;;;;;;;19.00;44.60;;;;;;7401379;19;1729;-61
2023/12/04 00:12:29;;;;;;;;;;;19.00;44.50;;;;;;7399253;19;1727;-62
2023/12/04 00:14:54;;;;;;;;;;;19.00;44.50;;;;;;7400353;19;4125;-63
2023/12/04 00:17:20;;;;;;;;;;;19.00;44.50;;;;;;7400643;19;3375;-62
2023/12/04 00:19:45;;;;;;;;;;;19.00;44.40;;;;;;7399557;19;2762;-61
2023/12/04 00:22:11;;;;;;;;;;;19.00;44.60;;;;;;7396673;19;3558;-62
2023/12/04 00:24:36;;;;;;;;;;;19.00;44.70;;;;;;7397877;19;978;-62
2023/12/04 00:27:01;;;;;;;;;;;19.00;44.20;;;;;;7398615;19;2886;-62
2023/12/04 00:29:27;;;;;;;;;;;19.10;44.40;;;;;;7396280;19;3900;-63
2023/12/04 00:31:52;;;;;;;;;;;19.10;44.10;;;;;;7401226;19;1681;-62
2023/12/04 00:34:18;;;;;;;;;;;19.10;44.40;;;;;;7400310;19;1692;-61
2023/12/04 00:36:43;;;;;;;;;;;19.10;44.10;;;;;;7396242;19;3023;-62
2023/12/04 00:39:09;;;;;;;;;;;19.00;44.30;;;;;;7396096;19;1492;-62
2023/12/04 00:41:34;;;;;;;;;;;19.00;44.20;;;;;;7401448;19;1597;-61
2023/12/04 00:43:59;;;;;;;;;;;19.00;44.30;;;;;;7395732;19;3111;-62
2023/12/04 00:46:25;;;;;;;;;;;19.00;44.40;;;;;;7400342;19;1642;-62
2023/12/04 00:48:51;;;;;;;;;;;19.00;44.30;;;;;;7398442;19;1824;-62
2023/12/04 00:51:16;;;;;;;;;;;18.90;44.20;;;;;;7397895;19;1596;-62
2023/12/04 00:53:42;;;;;;;;;;;18.90;44.40;;;;;;7395646;19;3566;-62
2023/12/04 00:56:07;;;;;;;;;;;18.80;44.50;;;;;;7400768;19;1002;-62
2023/12/04 00:58:33;;;;;;;;;;;18.70;44.50;;;;;;7393303;19;3410;-62
2023/12/04 01:00:59;;;;;;;;;;;18.70;44.40;;;;;;7399923;19;4102;-62
2023/12/04 01:03:26;;;;;;;;;;;18.70;44.50;;;;;;7394628;19;1838;-62
2023/12/04 01:05:51;;;;;;;;;;;18.80;44.50;;;;;;7396340;19;1794;-62
2023/12/04 01:08:17;;;;;;;;;;;18.90;44.20;;;;;;7395531;19;3537;-62
2023/12/04 01:10:43;;;;;;;;;;;18.90;44.40;;;;;;7394941;19;3785;-61
2023/12/04 01:13:08;;;;;;;;;;;18.90;44.10;;;;;;7396002;19;3940;-62
2023/12/04 01:15:33;;;;;;;;;;;18.90;43.90;;;;;;7396284;19;1777;-62
2023/12/04 01:18:00;;;;;;;;;;;18.90;44.10;;;;;;7398686;19;2266;-62
2023/12/04 01:20:25;;;;;;;;;;;18.90;44.20;;;;;;7399136;19;1651;-62
2023/12/04 01:22:51;;;;;;;;;;;18.80;43.90;;;;;;7395117;19;4673;-62
2023/12/04 01:25:16;;;;;;;;;;;18.80;44.10;;;;;;7396823;19;1488;-62
2023/12/04 01:27:42;;;;;;;;;;;18.90;44.00;;;;;;7395858;19;3358;-62
2023/12/04 01:30:10;;;;;;;;;;;18.90;44.00;;;;;;7398839;19;4054;-62
2023/12/04 01:32:36;;;;;;;;;;;18.90;44.20;;;;;;7399721;19;1591;-62
2023/12/04 01:35:01;;;;;;;;;;;18.90;44.10;;;;;;7398031;19;1558;-62
2023/12/04 01:37:27;;;;;;;;;;;18.90;44.00;;;;;;7395354;19;4995;-62
2023/12/04 01:39:52;;;;;;;;;;;18.90;44.00;;;;;;7395692;19;4658;-62
2023/12/04 01:42:18;;;;;;;;;;;18.90;44.10;;;;;;7394182;19;2786;-62
2023/12/04 01:44:43;;;;;;;;;;;18.90;44.20;;;;;;7399493;19;1748;-61
2023/12/04 01:47:09;;;;;;;;;;;18.80;43.90;;;;;;7398576;19;1625;-62
2023/12/04 01:49:34;;;;;;;;;;;18.70;44.10;;;;;;7395710;19;3360;-62
2023/12/04 01:52:00;;;;;;;;;;;18.70;44.10;;;;;;7395895;19;1669;-62
2023/12/04 01:54:25;;;;;;;;;;;18.50;44.30;;;;;;7392424;19;823;-62
2023/12/04 01:56:51;;;;;;;;;;;18.40;44.50;;;;;;7396282;19;3871;-61
2023/12/04 01:59:16;;;;;;;;;;;18.30;44.60;;;;;;7396069;19;1590;-61
2023/12/04 02:01:41;;;;;;;;;;;18.20;44.80;;;;;;7392576;19;3493;-63
2023/12/04 02:04:07;;;;;;;;;;;18.10;44.90;;;;;;7395625;19;4250;-61
2023/12/04 02:06:32;;;;;;;;;;;18.10;45.10;;;;;;7395572;19;1381;-62
2023/12/04 02:08:58;;;;;;;;;;;18.00;45.10;;;;;;7395066;19;1472;-61
2023/12/04 02:11:24;;;;;;;;;;;17.90;45.30;;;;;;7394396;19;884;-62
2023/12/04 02:13:49;;;;;;;;;;;17.90;45.10;;;;;;7394428;19;1587;-62
2023/12/04 02:16:15;;;;;;;;;;;17.90;45.90;;;;;;7395992;19;1565;-62
2023/12/04 02:18:40;;;;;;;;;;;17.80;45.30;;;;;;7394150;19;3616;-62
2023/12/04 02:21:06;;;;;;;;;;;17.80;45.50;;;;;;7397543;19;4351;-61
2023/12/04 02:23:31;;;;;;;;;;;17.70;45.60;;;;;;7390006;19;5720;-63
2023/12/04 02:26:05;;;;;;;;;;;17.70;45.80;;;;;;7397554;19;3931;-62
2023/12/04 02:28:32;;;;;;;;;;;17.60;45.80;;;;;;7395029;19;2759;-62
2023/12/04 02:30:57;;;;;;;;;;;17.60;45.90;;;;;;7393191;19;1657;-62
2023/12/04 02:33:23;;;;;;;;;;;17.50;45.90;;;;;;7393352;19;1023;-61
2023/12/04 02:35:48;;;;;;;;;;;17.50;46.00;;;;;;7393027;19;3516;-62
2023/12/04 02:38:14;;;;;;;;;;;17.50;46.00;;;;;;7395639;19;1448;-61
2023/12/04 02:40:39;;;;;;;;;;;17.40;46.00;;;;;;7394424;19;3548;-62
2023/12/04 02:43:04;;;;;;;;;;;17.50;46.10;;;;;;7393790;19;3935;-62
2023/12/04 02:45:30;;;;;;;;;;;17.50;46.20;;;;;;7395743;19;1704;-60
2023/12/04 02:47:55;;;;;;;;;;;17.40;46.10;;;;;;7395215;19;1522;-61
2023/12/04 02:50:21;;;;;;;;;;;17.40;46.50;;;;;;7394759;19;3510;-61
2023/12/04 02:52:46;;;;;;;;;;;17.40;46.00;;;;;;7392645;19;3653;-61
2023/12/04 02:55:11;;;;;;;;;;;17.40;45.90;;;;;;7392531;19;1078;-61
2023/12/04 02:57:37;;;;;;;;;;;17.40;46.10;;;;;;7393664;19;1611;-62
2023/12/04 03:00:04;;;;;;;;;;;17.40;46.10;;;;;;7394597;19;1963;-62
2023/12/04 03:02:29;;;;;;;;;;;17.30;46.00;;;;;;7394477;19;3468;-62
2023/12/04 03:04:54;;;;;;;;;;;17.30;46.00;;;;;;7397565;19;4014;-62
2023/12/04 03:07:21;;;;;;;;;;;17.30;46.00;;;;;;7392734;19;1542;-62
2023/12/04 03:09:46;;;;;;;;;;;17.30;46.00;;;;;;7391935;19;3712;-62
2023/12/04 03:12:12;;;;;;;;;;;17.30;46.00;;;;;;7396598;19;1438;-62
2023/12/04 03:14:37;;;;;;;;;;;17.30;46.10;;;;;;7400021;19;3492;-62
2023/12/04 03:17:03;;;;;;;;;;;17.30;46.00;;;;;;7401888;19;2055;-62
2023/12/04 03:19:28;;;;;;;;;;;17.30;46.00;;;;;;7403704;19;1586;-62
2023/12/04 03:21:53;;;;;;;;;;;17.30;46.10;;;;;;7398703;19;1529;-62
2023/12/04 03:24:19;;;;;;;;;;;17.20;46.00;;;;;;7397644;19;3504;-62
2023/12/04 03:26:44;;;;;;;;;;;17.20;46.10;;;;;;7404161;19;986;-62
2023/12/04 03:29:10;;;;;;;;;;;17.20;46.10;;;;;;7398103;19;4652;-61
2023/12/04 03:31:36;;;;;;;;;;;17.20;46.10;;;;;;7401511;19;1673;-62
2023/12/04 03:34:01;;;;;;;;;;;17.10;46.00;;;;;;7400495;19;1809;-62
2023/12/04 03:36:28;;;;;;;;;;;17.10;46.10;;;;;;7397013;19;1674;-61
2023/12/04 03:38:53;;;;;;;;;;;17.10;46.20;;;;;;7399790;19;3477;-62
2023/12/04 03:41:18;;;;;;;;;;;17.10;46.30;;;;;;7398770;19;1666;-61
2023/12/04 03:43:44;;;;;;;;;;;17.10;46.10;;;;;;7396311;19;3565;-60
2023/12/04 03:46:09;;;;;;;;;;;17.10;46.20;;;;;;7400538;19;2029;-61
2023/12/04 03:48:35;;;;;;;;;;;17.10;46.10;;;;;;7401881;19;1753;-61
2023/12/04 03:51:00;;;;;;;;;;;17.10;46.10;;;;;;7397775;19;3489;-61
2023/12/04 03:53:26;;;;;;;;;;;17.10;46.10;;;;;;7397418;19;3335;-61
2023/12/04 03:55:51;;;;;;;;;;;17.10;46.00;;;;;;7402285;19;1786;-61
2023/12/04 03:58:17;;;;;;;;;;;17.10;46.10;;;;;;7399984;19;1647;-60
2023/12/04 04:00:43;;;;;;;;;;;17.00;46.00;;;;;;7393426;19;3399;-61
2023/12/04 04:03:09;;;;;;;;;;;17.00;46.00;;;;;;7397121;19;1909;-61
2023/12/04 04:05:34;;;;;;;;;;;17.00;46.00;;;;;;7400538;19;1622;-61
2023/12/04 04:08:00;;;;;;;;;;;17.00;46.10;;;;;;7398650;19;3608;-62
2023/12/04 04:10:25;;;;;;;;;;;17.00;46.00;;;;;;7398390;19;1754;-61
2023/12/04 04:12:51;;;;;;;;;;;17.00;45.80;;;;;;7398212;19;1764;-61
2023/12/04 04:15:16;;;;;;;;;;;17.00;45.90;;;;;;7398787;19;3300;-61
2023/12/04 04:17:41;;;;;;;;;;;17.00;45.80;;;;;;7398774;19;1688;-61
2023/12/04 04:20:08;;;;;;;;;;;16.90;45.90;;;;;;7399636;19;1666;-61
2023/12/04 04:22:37;;;;;;;;;;;16.90;45.90;;;;;;7396465;19;4498;-61
2023/12/04 04:25:04;;;;;;;;;;;16.90;45.90;;;;;;7397661;19;3252;-61
2023/12/04 04:27:29;;;;;;;;;;;16.90;45.90;;;;;;7397187;19;1557;-61
2023/12/04 04:29:54;;;;;;;;;;;16.90;45.80;;;;;;7398361;19;4971;-60
2023/12/04 04:32:20;;;;;;;;;;;16.90;46.00;;;;;;7400431;19;1768;-60
2023/12/04 04:34:45;;;;;;;;;;;16.90;45.90;;;;;;7400004;19;1689;-61
2023/12/04 04:37:11;;;;;;;;;;;16.90;45.80;;;;;;7396524;19;4137;-61
2023/12/04 04:39:36;;;;;;;;;;;16.90;45.80;;;;;;7394518;19;930;-62
2023/12/04 04:42:02;;;;;;;;;;;16.90;45.70;;;;;;7393419;19;4734;-60
2023/12/04 04:44:27;;;;;;;;;;;16.90;45.90;;;;;;7398383;19;3231;-61
2023/12/04 04:46:52;;;;;;;;;;;16.80;45.70;;;;;;7397024;19;1690;-62
2023/12/04 04:49:18;;;;;;;;;;;16.80;45.80;;;;;;7398334;19;3600;-61
2023/12/04 04:51:43;;;;;;;;;;;16.80;45.70;;;;;;7397131;19;1650;-61
2023/12/04 04:54:09;;;;;;;;;;;16.80;45.60;;;;;;7398928;19;1719;-61
2023/12/04 04:56:34;;;;;;;;;;;16.80;45.70;;;;;;7395380;19;3475;-60
2023/12/04 04:58:59;;;;;;;;;;;16.80;45.80;;;;;;7396686;19;3340;-60
2023/12/04 05:01:25;;;;;;;;;;;16.80;45.70;;;;;;7395491;19;2762;-60
2023/12/04 05:03:50;;;;;;;;;;;16.80;45.60;;;;;;7395591;19;4868;-59
2023/12/04 05:06:16;;;;;;;;;;;16.80;45.70;;;;;;7396685;19;1440;-63
2023/12/04 05:08:41;;;;;;;;;;;16.80;45.50;;;;;;7395284;19;1720;-63
2023/12/04 05:11:06;;;;;;;;;;;16.80;45.50;;;;;;7391589;19;4165;-60
2023/12/04 05:13:32;;;;;;;;;;;16.80;45.50;;;;;;7396361;19;4460;-60
2023/12/04 05:15:57;;;;;;;;;;;16.70;45.40;;;;;;7394435;19;3353;-60
2023/12/04 05:18:23;;;;;;;;;;;16.80;45.40;;;;;;7389410;19;3939;-61
2023/12/04 05:20:48;;;;;;;;;;;16.80;45.30;;;;;;7398334;19;3635;-61
2023/12/04 05:23:14;;;;;;;;;;;16.70;45.40;;;;;;7396767;19;1853;-61
2023/12/04 05:25:39;;;;;;;;;;;16.80;45.30;;;;;;7395783;19;3716;-61
2023/12/04 05:28:04;;;;;;;;;;;16.70;45.20;;;;;;7398068;19;3494;-61
2023/12/04 05:30:30;;;;;;;;;;;16.70;45.10;;;;;;7395709;19;1837;-60
2023/12/04 05:32:56;;;;;;;;;;;16.70;45.20;;;;;;7391743;19;3617;-61
2023/12/04 05:35:21;;;;;;;;;;;16.70;44.90;;;;;;7393033;19;801;-61
2023/12/04 05:37:46;;;;;;;;;;;16.70;45.10;;;;;;7396369;19;1489;-61
2023/12/04 05:40:12;;;;;;;;;;;16.70;45.00;;;;;;7392593;19;4590;-60
2023/12/04 05:42:38;;;;;;;;;;;16.70;45.00;;;;;;7396193;19;1845;-61
2023/12/04 05:45:03;;;;;;;;;;;16.70;44.80;;;;;;7394386;19;3296;-61
2023/12/04 05:47:29;;;;;;;;;;;16.70;44.80;;;;;;7398367;19;3102;-61
2023/12/04 05:49:54;;;;;;;;;;;16.70;44.90;;;;;;7397508;19;1530;-61
2023/12/04 05:52:20;;;;;;;;;;;16.70;44.60;;;;;;7396909;19;1755;-61
2023/12/04 05:54:45;;;;;;;;;;;16.70;44.80;;;;;;7392073;19;4118;-61
2023/12/04 05:57:11;;;;;;;;;;;16.70;44.80;;;;;;7398311;19;3328;-61
2023/12/04 05:59:36;;;;;;;;;;;16.70;44.80;;;;;;7392130;19;5148;-61
2023/12/04 06:02:02;;;;;;;;;;;16.70;44.80;;;;;;7394765;19;3425;-61
2023/12/04 06:04:27;;;;;;;;;;;16.70;44.80;;;;;;7395621;19;3515;-61
2023/12/04 06:06:53;;;;;;;;;;;16.70;44.90;;;;;;7391215;19;3490;-61
2023/12/04 06:09:18;;;;;;;;;;;16.60;44.80;;;;;;7390391;19;3203;-61
2023/12/04 06:11:44;;;;;;;;;;;16.60;44.70;;;;;;7397123;19;799;-61
2023/12/04 06:14:10;;;;;;;;;;;16.60;44.80;;;;;;7395013;19;3823;-61
2023/12/04 06:16:36;;;;;;;;;;;16.60;44.80;;;;;;7392563;19;4196;-62
2023/12/04 06:19:02;;;;;;;;;;;16.60;44.70;;;;;;7392612;19;840;-61
2023/12/04 06:21:27;;;;;;;;;;;16.60;44.80;;;;;;7394963;19;1769;-61
2023/12/04 06:23:53;;;;;;;;;;;16.60;44.80;;;;;;7391546;19;3515;-60
2023/12/04 06:26:19;;;;;;;;;;;16.60;44.90;;;;;;7394527;19;3635;-61
2023/12/04 06:28:44;;;;;;;;;;;16.60;44.80;;;;;;7394153;19;3741;-61
2023/12/04 06:31:10;;;;;;;;;;;16.60;45.10;;;;;;7392607;19;3445;-61
2023/12/04 06:33:36;;;;;;;;;;;16.60;45.00;;;;;;7396058;19;3313;-61
2023/12/04 06:36:01;;;;;;;;;;;16.60;45.10;;;;;;7397666;19;1666;-61
2023/12/04 06:38:27;;;;;;;;;;;16.50;45.00;;;;;;7392327;19;3491;-61
2023/12/04 06:40:52;;;;;;;;;;;16.60;45.00;;;;;;7393361;19;1861;-61
2023/12/04 06:43:18;;;;;;;;;;;16.60;45.00;;;;;;7394393;19;3963;-61
2023/12/04 06:45:44;;;;;;;;;;;16.60;44.90;;;;;;7395539;19;3946;-61
2023/12/04 06:48:11;;;;;;;;;;;16.50;44.90;;;;;;7402472;19;1731;-61
2023/12/04 06:50:37;;;;;;;;;;;16.50;44.90;;;;;;7400381;19;1054;-61
2023/12/04 06:53:02;;;;;;;;;;;16.50;44.80;;;;;;7399074;19;5574;-61
2023/12/04 06:55:28;;;;;;;;;;;16.50;45.10;;;;;;7402258;19;788;-61
2023/12/04 06:57:53;;;;;;;;;;;16.50;45.00;;;;;;7398971;19;3535;-62
2023/12/04 07:00:19;;;;;;;;;;;16.50;45.00;;;;;;7396081;19;3668;-61
2023/12/04 07:02:44;;;;;;;;;;;16.50;45.10;;;;;;7397675;19;3521;-60
2023/12/04 07:05:10;;;;;;;;;;;16.50;44.90;;;;;;7398325;19;3932;-61
2023/12/04 07:07:35;;;;;;;;;;;16.50;44.90;;;;;;7402563;19;3918;-60
2023/12/04 07:10:00;;;;;;;;;;;16.60;44.90;;;;;;7398527;19;4119;-59
2023/12/04 07:12:26;;;;;;;;;;;16.60;44.80;;;;;;7402256;19;3829;-61
2023/12/04 07:14:51;;;;;;;;;;;16.70;44.80;;;;;;7398099;19;3548;-62
2023/12/04 07:17:17;;;;;;;;;;;16.70;44.60;;;;;;7401355;19;1574;-60
2023/12/04 07:19:42;;;;;;;;;;;16.70;44.60;;;;;;7399750;19;2008;-60
2023/12/04 07:22:08;;;;;;;;;;;16.70;44.50;;;;;;7396358;19;5809;-61
2023/12/04 07:24:33;;;;;;;;;;;16.80;44.40;;;;;;7399642;19;1865;-61
2023/12/04 07:26:59;;;;;;;;;;;16.80;44.40;;;;;;7397857;19;4864;-61
2023/12/04 07:29:24;;;;;;;;;;;16.80;44.30;;;;;;7399157;19;3485;-60
2023/12/04 07:31:49;;;;;;;;;;;16.80;44.40;;;;;;7400362;19;2030;-61
2023/12/04 07:34:15;;;;;;;;;;;16.80;44.40;;;;;;7398958;19;3465;-60
2023/12/04 07:36:41;;;;;;;;;;;16.70;44.80;;;;;;7400508;19;3222;-61
2023/12/04 07:39:06;;;;;;;;;;;16.70;44.50;;;;;;7402065;19;1359;-60
2023/12/04 07:41:32;;;;;;;;;;;16.70;45.30;;;;;;7396477;19;3501;-61
2023/12/04 07:43:57;;;;;;;;;;;16.70;44.60;;;;;;7397373;19;3315;-60
2023/12/04 07:46:23;;;;;;;;;;;16.70;44.60;;;;;;7393891;19;2222;-61
2023/12/04 07:48:48;;;;;;;;;;;16.70;44.50;;;;;;7400241;19;2333;-61
2023/12/04 07:51:14;;;;;;;;;;;16.80;44.60;;;;;;7400526;19;4245;-60
2023/12/04 07:53:40;;;;;;;;;;;16.80;44.60;;;;;;7400114;19;1700;-61
2023/12/04 07:56:05;;;;;;;;;;;16.70;44.60;;;;;;7395397;19;3835;-60
2023/12/04 07:58:31;;;;;;;;;;;16.70;44.60;;;;;;7397372;19;1646;-60
2023/12/04 08:00:57;;;;;;;;;;;16.80;44.50;;;;;;7395233;19;3269;-61
2023/12/04 08:03:23;;;;;;;;;;;16.80;44.80;;;;;;7398031;19;3673;-61
2023/12/04 08:05:50;;;;;;;;;;;16.80;44.70;;;;;;7399123;19;3443;-60
2023/12/04 08:08:15;;;;;;;;;;;16.80;44.70;;;;;;7397046;19;2256;-61
2023/12/04 08:10:40;;;;;;;;;;;16.80;44.70;;;;;;7394209;19;3441;-61
2023/12/04 08:13:06;;;;;;;;;;;16.80;44.60;;;;;;7397725;19;3944;-61
2023/12/04 08:15:31;;;;;;;;;;;16.80;44.80;;;;;;7393415;19;4209;-61
2023/12/04 08:17:57;;;;;;;;;;;16.70;44.80;;;;;;7398692;19;3714;-61
2023/12/04 08:20:23;;;;;;;;;;;16.70;44.70;;;;;;7396794;19;3715;-61
2023/12/04 08:22:49;;;;;;;;;;;16.70;44.70;;;;;;7399132;19;3310;-61
2023/12/04 08:25:14;;;;;;;;;;;16.70;44.80;;;;;;7395942;19;3927;-61
2023/12/04 08:27:40;;;;;;;;;;;16.70;44.90;;;;;;7397678;19;4115;-61
2023/12/04 08:30:05;;;;;;;;;;;16.70;44.80;;;;;;7397091;19;3504;-61
2023/12/04 08:32:31;;;;;;;;;;;16.70;44.70;;;;;;7398566;19;3501;-61
2023/12/04 08:34:56;;;;;;;;;;;16.70;44.70;;;;;;7395249;19;4288;-61
2023/12/04 08:37:22;;;;;;;;;;;16.70;44.70;;;;;;7394790;19;3170;-61
2023/12/04 08:39:47;;;;;;;;;;;16.70;44.60;;;;;;7392672;19;2719;-61
2023/12/04 08:42:13;;;;;;;;;;;16.70;44.70;;;;;;7390786;19;4150;-61
2023/12/04 08:44:38;;;;;;;;;;;16.70;44.80;;;;;;7397465;19;3797;-61
2023/12/04 08:47:04;;;;;;;;;;;16.70;44.60;;;;;;7394600;19;3607;-61
2023/12/04 08:49:29;;;;;;;;;;;16.70;44.60;;;;;;7393726;19;4368;-61
2023/12/04 08:51:55;;;;;;;;;;;16.70;44.70;;;;;;7393388;19;4563;-61
2023/12/04 08:54:21;;;;;;;;;;;16.70;44.70;;;;;;7398061;19;1547;-60
2023/12/04 08:56:46;;;;;;;;;;;16.70;44.60;;;;;;7392711;19;3982;-62
2023/12/04 08:59:12;;;;;;;;;;;16.80;44.50;;;;;;7397627;19;1570;-61
2023/12/04 09:01:38;;;;;;;;;;;17.40;44.40;;;;;;7376927;19;5397;-60
2023/12/04 09:04:03;;;;;;;;;;;18.20;43.20;;;;;;7387355;19;3217;-60
2023/12/04 09:06:29;;;;;;;;;;;18.70;42.40;;;;;;7394626;19;2986;-61
2023/12/04 09:08:54;;;;;;;;;;;19.10;41.70;;;;;;7390813;19;2726;-60
2023/12/04 09:11:20;;;;;;;;;;;19.40;41.30;;;;;;7392342;19;2588;-61
2023/12/04 09:13:45;;;;;;;;;;;19.70;40.90;;;;;;7390095;19;5694;-61
2023/12/04 09:16:10;;;;;;;;;;;19.90;40.50;;;;;;7395736;19;2252;-61
2023/12/04 09:18:36;;;;;;;;;;;20.20;40.30;;;;;;7397163;19;2031;-61
2023/12/04 09:21:01;;;;;;;;;;;20.30;40.20;;;;;;7389482;19;1847;-60
2023/12/04 09:23:27;;;;;;;;;;;20.40;40.10;;;;;;7391449;19;2905;-61
2023/12/04 09:25:52;;;;;;;;;;;20.40;40.00;;;;;;7392002;19;5400;-60
2023/12/04 09:28:18;;;;;;;;;;;20.50;39.90;;;;;;7396340;19;3282;-60
2023/12/04 09:30:43;;;;;;;;;;;20.60;39.90;;;;;;7393413;19;1730;-61
2023/12/04 09:33:08;;;;;;;;;;;20.60;40.00;;;;;;7390524;19;2763;-61
2023/12/04 09:35:34;;;;;;;;;;;20.70;40.10;;;;;;7393422;19;2692;-60
2023/12/04 09:37:59;;;;;;;;;;;20.70;40.00;;;;;;7390109;19;2911;-61
2023/12/04 09:40:25;;;;;;;;;;;20.80;40.10;;;;;;7393316;19;2941;-60
2023/12/04 09:42:51;;;;;;;;;;;20.80;40.00;;;;;;7393763;19;3797;-60
2023/12/04 09:45:16;;;;;;;;;;;20.80;40.00;;;;;;7393906;19;2415;-61
2023/12/04 09:47:42;;;;;;;;;;;20.90;40.00;;;;;;7394518;19;3195;-60
2023/12/04 09:50:07;;;;;;;;;;;20.90;39.80;;;;;;7397242;19;2942;-61
2023/12/04 09:52:34;;;;;;;;;;;21.00;39.80;;;;;;7392032;19;2941;-59
2023/12/04 09:54:59;;;;;;;;;;;21.00;39.90;;;;;;7393329;19;5803;-59
2023/12/04 09:57:25;;;;;;;;;;;20.90;40.00;;;;;;7394289;19;4119;-59
2023/12/04 09:59:50;;;;;;;;;;;21.00;39.90;;;;;;7388257;19;5679;-59
2023/12/04 10:02:16;;;;;;;;;;;21.00;39.90;;;;;;7392190;19;5747;-59
2023/12/04 10:04:41;;;;;;;;;;;21.00;39.90;;;;;;7388582;19;5585;-60
2023/12/04 10:07:07;;;;;;;;;;;21.10;39.90;;;;;;7389877;19;4168;-61
2023/12/04 10:09:32;;;;;;;;;;;21.10;39.90;;;;;;7382225;19;5815;-62
2023/12/04 10:11:58;;;;;;;;;;;21.20;39.80;;;;;;7386611;19;5766;-60
2023/12/04 10:14:23;;;;;;;;;;;21.20;39.90;;;;;;7390669;19;4310;-60
2023/12/04 10:16:49;;;;;;;;;;;21.20;39.90;;;;;;7389960;19;2880;-62
2023/12/04 10:19:16;;;;;;;;;;;21.20;39.80;;;;;;7387005;19;2842;-61
2023/12/04 10:21:41;;;;;;;;;;;21.20;39.80;;;;;;7389433;19;5075;-61
2023/12/04 10:24:08;;;;;;;;;;;21.30;39.90;;;;;;7399284;19;5461;-61
2023/12/04 10:26:33;;;;;;;;;;;21.20;39.80;;;;;;7400814;19;5530;-62
2023/12/04 10:29:00;;;;;;;;;;;21.30;39.70;;;;;;7402658;19;3548;-61
2023/12/04 10:31:25;;;;;;;;;;;21.30;39.80;;;;;;7399548;19;3334;-61
2023/12/04 10:33:51;;;;;;;;;;;21.30;39.80;;;;;;7397580;19;5523;-62
2023/12/04 10:36:17;;;;;;;;;;;21.30;39.80;;;;;;7397310;19;5447;-62
2023/12/04 10:38:43;;;;;;;;;;;21.30;39.70;;;;;;7400883;19;4468;-61
2023/12/04 10:41:12;;;;;;;;;;;21.40;39.80;;;;;;7401990;19;1696;-62
2023/12/04 10:43:37;;;;;;;;;;;21.40;39.70;;;;;;7396546;19;5441;-61
2023/12/04 10:46:03;;;;;;;;;;;21.40;39.70;;;;;;7399727;19;4275;-62
2023/12/04 10:48:28;;;;;;;;;;;21.50;39.70;;;;;;7400196;19;6977;-62
2023/12/04 10:50:54;;;;;;;;;;;21.50;39.60;;;;;;7399121;19;3565;-62
2023/12/04 10:53:19;;;;;;;;;;;21.50;39.70;;;;;;7396695;19;2428;-62
2023/12/04 10:55:45;;;;;;;;;;;21.50;39.90;;;;;;7403169;19;2600;-61
2023/12/04 10:58:17;;;;;;;;;;;21.50;39.70;;;;;;7398809;19;1720;-61
2023/12/04 11:00:45;;;;;;;;;;;21.50;39.90;;;;;;7392374;19;6759;-60
2023/12/04 11:03:34;;;;;;;;;;;21.50;39.80;;;;;;7400041;19;4140;-61
2023/12/04 11:06:00;;;;;;;;;;;21.50;39.90;;;;;;7396630;19;6902;-61
2023/12/04 11:08:26;;;;;;;;;;;21.50;39.90;;;;;;7398371;19;5465;-61
2023/12/04 11:11:00;;;;;;;;;;;21.50;39.80;;;;;;7394897;19;3893;-61
2023/12/04 11:13:26;;;;;;;;;;;21.50;39.90;;;;;;7397248;19;2628;-63
2023/12/04 11:15:52;;;;;;;;;;;21.60;39.90;;;;;;7392531;19;5275;-61
2023/12/04 11:18:19;;;;;;;;;;;21.60;40.00;;;;;;7399599;19;4337;-62
2023/12/04 11:20:46;;;;;;;;;;;21.60;40.10;;;;;;7395528;19;3288;-62
2023/12/04 11:23:13;;;;;;;;;;;21.60;40.10;;;;;;7397590;19;2810;-62
2023/12/04 11:25:38;;;;;;;;;;;21.60;40.10;;;;;;7400845;19;1842;-61
2023/12/04 11:28:04;;;;;;;;;;;21.60;40.10;;;;;;7398588;19;1731;-63
2023/12/04 11:30:29;;;;;;;;;;;21.70;40.10;;;;;;7399971;19;1836;-62
2023/12/04 11:32:58;;;;;;;;;;;21.70;40.10;;;;;;7398134;19;1982;-62
2023/12/04 11:35:24;;;;;;;;;;;21.60;40.20;;;;;;7390940;19;2838;-63
2023/12/04 11:37:50;;;;;;;;;;;21.70;40.30;;;;;;7397252;19;1853;-62
2023/12/04 11:40:15;;;;;;;;;;;21.80;40.20;;;;;;7397503;19;1812;-62
2023/12/04 11:42:41;;;;;;;;;;;21.80;40.10;;;;;;7399297;19;1830;-62
2023/12/04 11:45:07;;;;;;;;;;;21.80;40.20;;;;;;7388426;19;2703;-63
2023/12/04 11:47:51;;;;;;;;;;;21.80;40.10;;;;;;7400154;19;1670;-62
2023/12/04 11:50:19;;;;;;;;;;;21.70;40.20;;;;;;7399737;19;2403;-63
2023/12/04 11:52:45;;;;;;;;;;;21.80;40.20;;;;;;7396010;19;3447;-63
2023/12/04 11:55:11;;;;;;;;;;;21.80;40.20;;;;;;7397052;19;2106;-62
2023/12/04 11:57:37;;;;;;;;;;;21.80;40.30;;;;;;7400796;19;1736;-61
2023/12/04 12:00:29;;;;;;;;;;;21.80;40.30;;;;;;7397057;19;4000;-63
2023/12/04 12:02:54;;;;;;;;;;;21.90;40.40;;;;;;7399558;19;4030;-62
2023/12/04 12:05:20;;;;;;;;;;;21.90;40.30;;;;;;7399187;19;1428;-63
2023/12/04 12:07:45;;;;;;;;;;;22.00;40.30;;;;;;7397533;19;3380;-63
2023/12/04 12:10:12;;;;;;;;;;;21.90;40.20;;;;;;7399018;19;1903;-63
2023/12/04 12:12:38;;;;;;;;;;;21.90;40.30;;;;;;7398060;19;2150;-64
2023/12/04 12:15:04;;;;;;;;;;;21.90;40.50;;;;;;7393297;19;2724;-63
2023/12/04 12:17:29;;;;;;;;;;;21.90;40.30;;;;;;7398024;19;1799;-63
2023/12/04 12:19:57;;;;;;;;;;;21.90;41.10;;;;;;7397368;19;1752;-62
2023/12/04 12:22:22;;;;;;;;;;;22.00;40.50;;;;;;7398750;19;1720;-61
2023/12/04 12:24:48;;;;;;;;;;;22.00;40.30;;;;;;7396272;19;1841;-63
2023/12/04 12:27:15;;;;;;;;;;;22.00;40.40;;;;;;7396496;19;1704;-63
2023/12/04 12:29:40;;;;;;;;;;;22.00;40.40;;;;;;7395944;19;1819;-61
2023/12/04 12:32:06;;;;;;;;;;;22.00;40.50;;;;;;7396522;19;1724;-61
2023/12/04 12:34:35;;;;;;;;;;;21.90;40.40;;;;;;7399199;19;1905;-62
2023/12/04 12:37:01;;;;;;;;;;;22.00;40.40;;;;;;7393806;19;3168;-63
2023/12/04 12:39:26;;;;;;;;;;;22.00;40.30;;;;;;7398191;19;1861;-62
2023/12/04 12:41:52;;;;;;;;;;;22.00;40.40;;;;;;7396399;19;1838;-62
2023/12/04 12:44:17;;;;;;;;;;;21.90;40.40;;;;;;7390004;19;3353;-61
2023/12/04 12:46:46;;;;;;;;;;;21.90;40.40;;;;;;7393039;19;1980;-61
2023/12/04 12:49:13;;;;;;;;;;;21.90;40.40;;;;;;7395647;19;2599;-61
2023/12/04 12:51:39;;;;;;;;;;;22.00;40.40;;;;;;7396326;19;1329;-61
2023/12/04 12:54:05;;;;;;;;;;;21.90;40.40;;;;;;7386891;19;5523;-60
2023/12/04 12:56:31;;;;;;;;;;;22.00;40.50;;;;;;7396116;19;3279;-62
2023/12/04 12:58:57;;;;;;;;;;;22.00;40.50;;;;;;7395660;19;2114;-61
2023/12/04 13:01:25;;;;;;;;;;;22.00;40.50;;;;;;7388145;19;4852;-62
2023/12/04 13:03:50;;;;;;;;;;;22.00;40.40;;;;;;7397496;19;2429;-61
2023/12/04 13:06:17;;;;;;;;;;;21.90;40.30;;;;;;7399165;19;2200;-61
2023/12/04 13:08:43;;;;;;;;;;;22.00;40.40;;;;;;7395259;19;3771;-61
2023/12/04 13:11:08;;;;;;;;;;;22.00;40.40;;;;;;7399438;19;2106;-62
2023/12/04 13:13:33;;;;;;;;;;;22.00;40.30;;;;;;7398008;19;1969;-61
2023/12/04 13:15:59;;;;;;;;;;;22.00;40.30;;;;;;7397031;19;1963;-61
2023/12/04 13:18:24;;;;;;;;;;;22.00;40.30;;;;;;7398446;19;1745;-60
2023/12/04 13:20:50;;;;;;;;;;;22.10;40.30;;;;;;7397883;19;1809;-61
2023/12/04 13:23:15;;;;;;;;;;;22.10;40.30;;;;;;7393918;19;1956;-61
2023/12/04 13:25:41;;;;;;;;;;;22.10;40.40;;;;;;7396064;19;1797;-61
2023/12/04 13:28:06;;;;;;;;;;;22.20;40.50;;;;;;7398672;19;1130;-61
2023/12/04 13:30:34;;;;;;;;;;;22.10;40.40;;;;;;7397544;19;2566;-62
2023/12/04 13:32:59;;;;;;;;;;;22.10;40.30;;;;;;7395121;19;1783;-61
2023/12/04 13:35:25;;;;;;;;;;;22.10;40.50;;;;;;7393519;19;1680;-63
2023/12/04 13:37:55;;;;;;;;;;;22.20;40.40;;;;;;7393629;19;1678;-61
2023/12/04 13:40:20;;;;;;;;;;;22.20;40.30;;;;;;7395280;19;1712;-61
2023/12/04 13:45:31;;;;;;;;;;;22.20;40.40;;;;;;7392042;19;4391;-61
2023/12/04 13:47:57;;;;;;;;;;;22.20;40.40;;;;;;7393238;19;5519;-61
2023/12/04 13:50:22;;;;;;;;;;;22.20;40.40;;;;;;7397142;19;3589;-61
2023/12/04 13:52:55;;;;;;;;;;;22.20;40.40;;;;;;7395642;19;1614;-61
2023/12/04 13:55:29;;;;;;;;;;;22.20;40.40;;;;;;7392022;19;3904;-61
2023/12/04 13:58:09;;;;;;;;;;;22.20;40.60;;;;;;7394367;19;5466;-61
2023/12/04 14:00:34;;;;;;;;;;;22.20;40.60;;;;;;7388726;19;6841;-61
2023/12/04 14:03:04;;;;;;;;;;;22.20;40.40;;;;;;7394305;19;2953;-60
2023/12/04 14:05:30;;;;;;;;;;;22.20;40.40;;;;;;7396849;19;1813;-62
2023/12/04 14:07:57;;;;;;;;;;;22.20;40.50;;;;;;7388216;19;5558;-61
2023/12/04 14:10:22;;;;;;;;;;;22.20;40.60;;;;;;7393775;19;2112;-60
2023/12/04 14:12:48;;;;;;;;;;;22.20;40.70;;;;;;7396538;19;1804;-60
2023/12/04 14:15:14;;;;;;;;;;;22.20;40.80;;;;;;7395944;19;1795;-60
2023/12/04 14:17:39;;;;;;;;;;;22.20;40.80;;;;;;7394706;19;1900;-60
2023/12/04 14:20:12;;;;;;;;;;;22.20;40.90;;;;;;7394885;19;1839;-60
2023/12/04 14:22:39;;;;;;;;;;;22.20;40.90;;;;;;7394315;19;2158;-60
2023/12/04 14:25:05;;;;;;;;;;;22.20;40.90;;;;;;7395063;19;1954;-60